Time;durP1;ratioP1;P1;durP2;ratioP2;P2;SDS_P1;SDS_P2;PMS_P1;PMS_P2;Temp;Humidity;BMP_temperature;BMP_pressure;BME280_temperature;BME280_humidity;BME280_pressure;Samples;Min_cycle;Max_cycle;Signal;HPM_P1;HPM_P2
2021/05/29 00:01:59;;;;;;;10.00;5.90;;;17.70;68.80;;;;;;5058125;28;20035;-60
2021/05/29 00:04:25;;;;;;;13.93;6.20;;;17.60;68.80;;;;;;5070364;28;20081;-60
2021/05/29 00:06:51;;;;;;;11.93;5.45;;;17.70;68.90;;;;;;5073645;28;20600;-60
2021/05/29 00:09:17;;;;;;;13.10;5.25;;;17.60;68.90;;;;;;5072613;28;20118;-60
2021/05/29 00:11:42;;;;;;;9.43;5.43;;;17.70;69.00;;;;;;5061039;28;20128;-60
2021/05/29 00:14:08;;;;;;;10.60;5.38;;;17.60;69.00;;;;;;5074577;28;20384;-60
2021/05/29 00:16:34;;;;;;;9.45;5.30;;;17.60;69.10;;;;;;5062847;28;20033;-60
2021/05/29 00:18:59;;;;;;;12.60;5.70;;;17.60;69.20;;;;;;5059741;28;20086;-59
2021/05/29 00:21:25;;;;;;;10.38;5.55;;;17.60;69.30;;;;;;5074633;28;20071;-60
2021/05/29 00:23:51;;;;;;;12.48;5.13;;;17.60;69.30;;;;;;5059432;28;20067;-60
2021/05/29 00:26:16;;;;;;;13.40;6.07;;;17.60;69.40;;;;;;5056058;28;20033;-60
2021/05/29 00:28:42;;;;;;;11.02;5.55;;;17.60;69.40;;;;;;5065187;28;20139;-60
2021/05/29 00:31:08;;;;;;;10.10;6.03;;;17.60;69.60;;;;;;5057139;28;20040;-60
2021/05/29 00:33:34;;;;;;;16.50;5.53;;;17.50;69.60;;;;;;5057503;28;20033;-59
2021/05/29 00:35:59;;;;;;;13.05;5.68;;;17.50;69.60;;;;;;5057932;28;21813;-60
2021/05/29 00:38:25;;;;;;;9.70;5.00;;;17.50;69.60;;;;;;5057314;28;20083;-60
2021/05/29 00:40:51;;;;;;;10.23;4.95;;;17.50;69.70;;;;;;5055489;28;20491;-60
2021/05/29 00:43:17;;;;;;;11.40;5.28;;;17.50;69.80;;;;;;5067946;28;20033;-60
2021/05/29 00:45:42;;;;;;;11.65;5.47;;;17.40;69.80;;;;;;5069786;28;20032;-60
2021/05/29 00:48:08;;;;;;;12.23;5.53;;;17.40;69.80;;;;;;5058752;28;20020;-60
2021/05/29 00:50:34;;;;;;;10.95;5.18;;;17.40;69.90;;;;;;5056382;28;20029;-60
2021/05/29 00:53:01;;;;;;;10.57;5.55;;;17.40;70.00;;;;;;5058901;28;20036;-60
2021/05/29 00:55:27;;;;;;;10.88;5.10;;;17.40;70.00;;;;;;5056321;28;20033;-59
2021/05/29 00:57:54;;;;;;;14.00;5.35;;;17.40;70.00;;;;;;5058170;28;20036;-59
2021/05/29 01:00:22;;;;;;;13.07;6.30;;;17.30;70.10;;;;;;5057074;28;20028;-60
2021/05/29 01:02:50;;;;;;;10.57;5.57;;;17.30;70.10;;;;;;5057551;28;20099;-59
2021/05/29 01:05:18;;;;;;;12.48;5.85;;;17.30;70.10;;;;;;5056910;28;20751;-60
2021/05/29 01:07:51;;;;;;;14.10;6.50;;;17.30;70.10;;;;;;5057425;28;20060;-60
2021/05/29 01:10:20;;;;;;;11.23;6.43;;;17.30;70.10;;;;;;5066620;28;20043;-60
2021/05/29 01:12:46;;;;;;;14.98;6.28;;;17.30;70.10;;;;;;5053347;28;20056;-60
2021/05/29 01:15:14;;;;;;;10.30;5.28;;;17.30;70.10;;;;;;5068003;28;20032;-60
2021/05/29 01:17:40;;;;;;;10.82;5.45;;;17.20;70.00;;;;;;5060808;28;20036;-60
2021/05/29 01:20:07;;;;;;;12.18;6.60;;;17.20;70.00;;;;;;5059511;28;20420;-60
2021/05/29 01:22:39;;;;;;;15.63;5.60;;;17.30;70.10;;;;;;5053631;28;20385;-60
2021/05/29 01:25:35;;;;;;;10.82;6.35;;;17.20;70.00;;;;;;5055152;28;20029;-60
2021/05/29 01:28:05;;;;;;;13.18;6.60;;;17.20;70.00;;;;;;5054059;28;20037;-59
2021/05/29 01:30:37;;;;;;;14.13;6.63;;;17.20;70.10;;;;;;5061671;28;20031;-60
2021/05/29 01:33:03;;;;;;;14.82;6.80;;;17.20;70.10;;;;;;5052340;28;20392;-60
2021/05/29 01:35:30;;;;;;;12.95;7.18;;;17.20;70.20;;;;;;5068168;28;20486;-60
2021/05/29 01:37:56;;;;;;;13.38;7.30;;;17.10;70.10;;;;;;5071419;28;20032;-61
2021/05/29 01:40:22;;;;;;;14.57;7.95;;;17.20;70.20;;;;;;5061686;28;20120;-60
2021/05/29 01:42:48;;;;;;;12.38;7.90;;;17.20;70.30;;;;;;5055189;28;20117;-60
2021/05/29 01:45:14;;;;;;;13.10;7.68;;;17.20;70.30;;;;;;5063673;28;20037;-60
2021/05/29 01:47:43;;;;;;;14.73;7.65;;;17.10;70.20;;;;;;5070646;28;20035;-60
2021/05/29 01:50:15;;;;;;;18.98;8.25;;;17.10;70.20;;;;;;5073477;28;20028;-60
2021/05/29 01:52:48;;;;;;;18.05;7.50;;;17.10;70.30;;;;;;5061146;28;20510;-59
2021/05/29 01:55:16;;;;;;;16.42;7.65;;;17.00;70.30;;;;;;5062935;28;20040;-60
2021/05/29 01:57:42;;;;;;;13.40;7.43;;;17.10;70.30;;;;;;5060505;28;20112;-60
2021/05/29 02:00:08;;;;;;;15.43;7.95;;;17.10;70.30;;;;;;5059210;28;20127;-59
2021/05/29 02:02:38;;;;;;;15.40;7.30;;;17.10;70.30;;;;;;5055541;28;20094;-59
2021/05/29 02:05:39;;;;;;;17.52;8.35;;;17.10;70.20;;;;;;5068918;28;20070;-59
2021/05/29 02:08:07;;;;;;;16.55;7.65;;;17.10;70.30;;;;;;5043396;28;20411;-59
2021/05/29 02:10:35;;;;;;;16.48;8.30;;;17.10;70.30;;;;;;5066826;28;20381;-60
2021/05/29 02:13:05;;;;;;;15.13;7.22;;;17.00;70.40;;;;;;5069230;28;20484;-60
2021/05/29 02:15:39;;;;;;;14.98;7.82;;;17.00;70.30;;;;;;5065207;28;20040;-60
2021/05/29 02:18:10;;;;;;;13.80;7.50;;;17.00;70.50;;;;;;5064172;28;20040;-60
2021/05/29 02:20:49;;;;;;;13.52;7.93;;;17.00;71.00;;;;;;5057667;28;20044;-59
2021/05/29 02:23:24;;;;;;;15.10;7.50;;;17.00;70.50;;;;;;5061730;28;20029;-59
2021/05/29 02:25:52;;;;;;;16.75;7.28;;;17.00;70.50;;;;;;5068245;28;20056;-60
2021/05/29 02:28:19;;;;;;;16.67;7.50;;;17.00;70.40;;;;;;5060907;28;20024;-60
2021/05/29 02:30:45;;;;;;;18.17;7.72;;;17.00;70.50;;;;;;5072125;28;20402;-59
2021/05/29 02:33:11;;;;;;;16.80;8.23;;;16.90;70.40;;;;;;5060051;28;20027;-59
2021/05/29 02:35:38;;;;;;;17.42;8.50;;;16.90;70.50;;;;;;5058857;28;20029;-59
2021/05/29 02:38:05;;;;;;;13.55;7.50;;;16.90;70.60;;;;;;5067497;28;20043;-60
2021/05/29 02:40:31;;;;;;;16.38;7.63;;;16.90;70.70;;;;;;5062098;28;20021;-60
2021/05/29 02:42:57;;;;;;;16.48;8.13;;;16.90;70.80;;;;;;5055059;28;20029;-59
2021/05/29 02:45:25;;;;;;;14.68;7.68;;;16.90;70.90;;;;;;5060978;28;20043;-59
2021/05/29 02:47:50;;;;;;;14.85;7.75;;;16.90;71.00;;;;;;5071550;28;20384;-59
2021/05/29 02:50:17;;;;;;;11.73;6.93;;;16.90;71.20;;;;;;5062701;28;20021;-60
2021/05/29 02:52:43;;;;;;;14.23;6.78;;;16.90;71.50;;;;;;5056883;28;20052;-60
2021/05/29 02:55:15;;;;;;;13.85;7.13;;;16.90;71.60;;;;;;5066197;28;20032;-60
2021/05/29 02:57:41;;;;;;;15.63;8.10;;;16.90;71.80;;;;;;5053441;28;20365;-59
2021/05/29 03:00:12;;;;;;;14.60;8.23;;;16.90;71.80;;;;;;5055286;28;20123;-59
2021/05/29 03:02:38;;;;;;;12.20;6.78;;;16.80;71.90;;;;;;5070253;28;20115;-60
2021/05/29 03:05:06;;;;;;;16.42;7.07;;;16.80;72.00;;;;;;5072536;28;20121;-60
2021/05/29 03:07:31;;;;;;;14.70;6.70;;;16.80;72.10;;;;;;5071782;28;20029;-59
2021/05/29 03:09:58;;;;;;;10.60;6.47;;;16.80;72.10;;;;;;5065114;28;20436;-60
2021/05/29 03:12:24;;;;;;;13.48;7.00;;;16.90;72.20;;;;;;5062874;28;20040;-60
2021/05/29 03:14:50;;;;;;;16.23;7.88;;;16.80;72.30;;;;;;5064363;28;20039;-59
2021/05/29 03:17:16;;;;;;;12.38;7.18;;;16.80;72.30;;;;;;5066893;28;20032;-59
2021/05/29 03:19:42;;;;;;;15.20;7.70;;;16.80;72.50;;;;;;5071024;28;20067;-59
2021/05/29 03:22:07;;;;;;;16.30;6.97;;;16.80;72.30;;;;;;5071924;28;20036;-60
2021/05/29 03:24:33;;;;;;;14.73;6.93;;;16.80;72.30;;;;;;5077575;28;20099;-60
2021/05/29 03:26:59;;;;;;;16.92;7.18;;;16.80;72.30;;;;;;5066807;28;20025;-60
2021/05/29 03:29:24;;;;;;;14.50;7.43;;;16.80;72.40;;;;;;5073323;28;20541;-60
2021/05/29 03:31:50;;;;;;;13.75;7.25;;;16.80;72.30;;;;;;5061191;28;20043;-60
2021/05/29 03:34:16;;;;;;;13.95;7.20;;;16.80;72.30;;;;;;5062680;28;20471;-61
2021/05/29 03:36:41;;;;;;;14.25;6.75;;;16.70;72.10;;;;;;5074651;28;20498;-61
2021/05/29 03:39:07;;;;;;;15.45;6.85;;;16.80;72.20;;;;;;5062890;28;20120;-61
2021/05/29 03:41:33;;;;;;;13.70;7.22;;;16.70;72.20;;;;;;5077486;28;20028;-61
2021/05/29 03:44:00;;;;;;;17.48;6.97;;;16.70;72.30;;;;;;5066359;28;20435;-61
2021/05/29 03:46:26;;;;;;;14.70;7.97;;;16.70;72.30;;;;;;5071947;28;20066;-60
2021/05/29 03:48:52;;;;;;;13.52;7.50;;;16.70;72.40;;;;;;5074414;28;20056;-61
2021/05/29 03:51:17;;;;;;;12.57;6.43;;;16.70;72.50;;;;;;5068486;28;20115;-60
2021/05/29 03:53:43;;;;;;;11.38;5.80;;;16.70;72.30;;;;;;5071855;28;20104;-61
2021/05/29 03:56:08;;;;;;;11.65;5.53;;;16.70;72.00;;;;;;5068505;28;20040;-61
2021/05/29 03:58:34;;;;;;;14.55;5.00;;;16.70;71.60;;;;;;5071859;28;20029;-60
2021/05/29 04:01:00;;;;;;;10.82;4.90;;;16.70;71.30;;;;;;5069867;28;20032;-61
2021/05/29 04:03:26;;;;;;;10.07;4.88;;;16.60;71.10;;;;;;5078142;28;20115;-60
2021/05/29 04:05:52;;;;;;;8.05;5.00;;;16.60;71.00;;;;;;5067694;28;20033;-60
2021/05/29 04:08:17;;;;;;;7.40;4.35;;;16.60;71.00;;;;;;5076967;28;20035;-61
2021/05/29 04:10:43;;;;;;;10.13;4.80;;;16.60;71.00;;;;;;5074174;28;20072;-61
2021/05/29 04:13:09;;;;;;;8.95;4.38;;;16.60;71.00;;;;;;5074802;28;20116;-60
2021/05/29 04:15:34;;;;;;;11.02;4.68;;;16.60;70.90;;;;;;5074316;28;20024;-60
2021/05/29 04:18:01;;;;;;;9.80;4.97;;;16.60;70.90;;;;;;5077829;28;20485;-60
2021/05/29 04:20:27;;;;;;;5.60;3.97;;;16.50;70.90;;;;;;5076679;28;20059;-60
2021/05/29 04:22:56;;;;;;;9.68;4.78;;;16.50;71.00;;;;;;5077533;28;20028;-60
2021/05/29 04:25:25;;;;;;;7.75;4.55;;;16.50;70.80;;;;;;5076103;28;20106;-60
2021/05/29 04:27:51;;;;;;;11.07;4.35;;;16.50;70.80;;;;;;5074788;28;20031;-61
2021/05/29 04:30:20;;;;;;;10.25;4.40;;;16.60;70.60;;;;;;5072233;28;20036;-61
2021/05/29 04:32:47;;;;;;;8.65;4.50;;;16.50;70.50;;;;;;5061395;28;20069;-60
2021/05/29 04:35:14;;;;;;;8.35;4.32;;;16.60;70.40;;;;;;5068982;28;20071;-60
2021/05/29 04:37:40;;;;;;;10.23;4.70;;;16.50;70.20;;;;;;5069238;28;20392;-60
2021/05/29 04:40:10;;;;;;;8.52;4.43;;;16.60;70.20;;;;;;5064644;28;20028;-61
2021/05/29 04:42:37;;;;;;;9.60;4.75;;;16.50;70.20;;;;;;5060600;28;20058;-61
2021/05/29 04:45:08;;;;;;;9.43;4.93;;;16.60;70.20;;;;;;5074217;28;20365;-60
2021/05/29 04:47:34;;;;;;;9.93;4.85;;;16.60;70.20;;;;;;5059205;28;20054;-60
2021/05/29 04:49:59;;;;;;;9.55;4.82;;;16.50;70.20;;;;;;5072268;28;20024;-61
2021/05/29 04:52:25;;;;;;;9.88;5.00;;;16.50;70.30;;;;;;5071854;28;20055;-61
2021/05/29 04:54:51;;;;;;;10.90;5.03;;;16.50;70.20;;;;;;5064200;28;20056;-61
2021/05/29 04:57:17;;;;;;;9.02;4.68;;;16.50;70.10;;;;;;5074743;28;20551;-61
2021/05/29 04:59:43;;;;;;;9.27;4.72;;;16.60;70.00;;;;;;5068960;28;20082;-61
2021/05/29 05:02:09;;;;;;;9.48;4.65;;;16.60;69.80;;;;;;5069522;28;20056;-61
2021/05/29 05:04:34;;;;;;;8.80;4.28;;;16.50;69.50;;;;;;5067569;28;20043;-61
2021/05/29 05:07:00;;;;;;;9.20;4.43;;;16.60;69.40;;;;;;5069973;28;20035;-60
2021/05/29 05:09:26;;;;;;;10.13;4.40;;;16.60;69.30;;;;;;5068129;28;20024;-60
2021/05/29 05:11:53;;;;;;;10.70;5.13;;;16.60;69.30;;;;;;5069893;28;20048;-60
2021/05/29 05:14:19;;;;;;;8.38;4.72;;;16.60;69.00;;;;;;5070333;28;20028;-61
2021/05/29 05:16:45;;;;;;;14.18;5.78;;;16.60;68.90;;;;;;5069405;28;20036;-60
2021/05/29 05:19:11;;;;;;;12.95;5.03;;;16.50;69.10;;;;;;5074178;28;20460;-60
2021/05/29 05:21:36;;;;;;;8.90;3.90;;;16.60;69.40;;;;;;5069484;28;20063;-61
2021/05/29 05:24:03;;;;;;;7.88;4.32;;;16.50;69.40;;;;;;5073320;28;20025;-61
2021/05/29 05:26:29;;;;;;;10.18;4.38;;;16.50;69.60;;;;;;5072869;28;20040;-61
2021/05/29 05:28:54;;;;;;;12.18;4.85;;;16.50;69.20;;;;;;5069773;28;20464;-61
2021/05/29 05:31:20;;;;;;;10.80;5.38;;;16.50;69.10;;;;;;5055471;28;20041;-61
2021/05/29 05:33:47;;;;;;;13.25;5.15;;;16.50;69.00;;;;;;5064313;28;20024;-61
2021/05/29 05:36:14;;;;;;;7.13;4.07;;;16.50;69.10;;;;;;5062088;28;20098;-60
2021/05/29 05:38:41;;;;;;;10.70;5.15;;;16.50;69.30;;;;;;5067555;28;20025;-61
2021/05/29 05:41:07;;;;;;;11.07;5.03;;;16.50;69.30;;;;;;5070332;28;20393;-61
2021/05/29 05:43:34;;;;;;;18.80;5.45;;;16.50;69.40;;;;;;5064736;28;20175;-61
2021/05/29 05:46:00;;;;;;;9.85;4.80;;;16.40;69.50;;;;;;5062721;28;20028;-60
2021/05/29 05:48:26;;;;;;;13.35;5.03;;;16.40;69.50;;;;;;5066158;28;20036;-60
2021/05/29 05:50:53;;;;;;;12.27;5.10;;;16.50;69.60;;;;;;5058432;28;20032;-61
2021/05/29 05:53:20;;;;;;;10.45;4.38;;;16.40;69.80;;;;;;5064983;28;20094;-61
2021/05/29 05:55:46;;;;;;;13.60;4.13;;;16.40;70.00;;;;;;5056523;28;20476;-60
2021/05/29 05:58:12;;;;;;;6.03;3.60;;;16.40;70.10;;;;;;5068526;28;20039;-61
2021/05/29 06:00:38;;;;;;;6.03;3.85;;;16.40;70.10;;;;;;5070834;28;20031;-60
2021/05/29 06:03:04;;;;;;;8.50;3.90;;;16.40;70.10;;;;;;5062822;28;20545;-60
2021/05/29 06:05:29;;;;;;;5.30;3.33;;;16.40;70.10;;;;;;5062150;28;20036;-60
2021/05/29 06:07:55;;;;;;;7.80;4.03;;;16.40;70.10;;;;;;5065005;28;20028;-60
2021/05/29 06:10:21;;;;;;;10.50;4.78;;;16.40;70.10;;;;;;5067844;28;20468;-61
2021/05/29 06:12:50;;;;;;;8.82;4.03;;;16.40;70.80;;;;;;5067963;28;20053;-60
2021/05/29 06:20:28;;;;;;;7.40;4.15;;;16.30;69.70;;;;;;5067970;28;20035;-61
2021/05/29 06:22:57;;;;;;;11.65;3.88;;;16.30;69.90;;;;;;5072299;28;20036;-61
2021/05/29 06:25:22;;;;;;;10.90;4.53;;;16.30;70.00;;;;;;5070265;28;20032;-61
2021/05/29 06:27:48;;;;;;;12.65;4.10;;;16.30;70.00;;;;;;5065961;28;20434;-61
2021/05/29 06:30:14;;;;;;;7.38;3.67;;;16.30;70.00;;;;;;5063459;28;20017;-61
2021/05/29 06:32:40;;;;;;;10.82;3.70;;;16.30;70.20;;;;;;5060669;28;20037;-60
2021/05/29 06:35:07;;;;;;;11.02;4.00;;;16.30;70.40;;;;;;5060936;28;20495;-62
2021/05/29 06:37:35;;;;;;;7.80;3.22;;;16.30;70.20;;;;;;5072875;28;20416;-62
2021/05/29 06:40:04;;;;;;;7.88;3.42;;;16.30;70.00;;;;;;5058175;28;20510;-61
2021/05/29 06:42:29;;;;;;;5.70;3.13;;;16.30;69.80;;;;;;5062613;28;20052;-61
2021/05/29 06:44:55;;;;;;;3.50;2.42;;;16.40;70.10;;;;;;5070801;28;20098;-61
2021/05/29 06:47:24;;;;;;;8.30;2.53;;;16.40;69.90;;;;;;5064912;28;20121;-60
2021/05/29 06:49:50;;;;;;;5.03;2.67;;;16.40;69.90;;;;;;5069328;28;20137;-60
2021/05/29 06:52:18;;;;;;;8.95;3.40;;;16.40;69.90;;;;;;5055279;28;20373;-61
2021/05/29 06:54:59;;;;;;;6.53;3.33;;;16.40;70.10;;;;;;5055383;28;20028;-61
2021/05/29 07:00:10;;;;;;;6.05;3.40;;;16.50;70.10;;;;;;5059994;28;20025;-61
2021/05/29 07:02:37;;;;;;;7.18;3.70;;;16.50;70.00;;;;;;5061766;28;20028;-61
2021/05/29 07:05:05;;;;;;;7.70;3.47;;;16.50;70.10;;;;;;5053488;28;20025;-61
2021/05/29 07:07:31;;;;;;;13.18;3.60;;;16.50;69.70;;;;;;5067917;28;20395;-60
2021/05/29 07:09:57;;;;;;;6.82;3.58;;;16.60;69.70;;;;;;5054702;28;20021;-61
2021/05/29 07:12:23;;;;;;;10.45;3.25;;;16.60;69.90;;;;;;5057507;28;20060;-60
2021/05/29 07:14:49;;;;;;;11.73;3.85;;;16.60;69.80;;;;;;5060861;28;20020;-61
2021/05/29 07:17:15;;;;;;;7.70;3.35;;;16.60;69.50;;;;;;5065156;28;20021;-60
2021/05/29 07:19:40;;;;;;;7.68;3.92;;;16.70;69.80;;;;;;5057162;28;20037;-64
2021/05/29 07:22:06;;;;;;;4.63;2.80;;;16.70;69.60;;;;;;5054482;28;20025;-66
2021/05/29 07:24:33;;;;;;;8.98;3.67;;;16.70;70.60;;;;;;5057487;28;20021;-61
2021/05/29 07:26:59;;;;;;;5.53;3.50;;;16.70;70.70;;;;;;5053772;28;20106;-60
2021/05/29 07:29:26;;;;;;;8.77;3.28;;;16.70;70.50;;;;;;5052409;28;20051;-61
2021/05/29 07:31:53;;;;;;;6.38;2.90;;;16.70;70.30;;;;;;5051891;28;20025;-61
2021/05/29 07:34:19;;;;;;;7.40;3.92;;;16.70;70.00;;;;;;5050287;28;20020;-61
2021/05/29 07:36:45;;;;;;;7.20;2.55;;;16.70;69.90;;;;;;5059307;28;20507;-60
2021/05/29 07:39:11;;;;;;;6.50;3.00;;;16.80;69.80;;;;;;5053294;28;20028;-61
2021/05/29 07:41:38;;;;;;;6.40;3.30;;;16.80;69.60;;;;;;5057038;28;20076;-60
2021/05/29 07:44:05;;;;;;;7.60;3.20;;;16.80;69.70;;;;;;5058305;28;20086;-61
2021/05/29 07:46:32;;;;;;;6.78;3.30;;;16.90;69.90;;;;;;5061823;28;20031;-61
2021/05/29 07:48:58;;;;;;;7.82;2.97;;;16.90;69.80;;;;;;5059189;28;20112;-61
2021/05/29 07:51:23;;;;;;;6.07;3.08;;;16.90;69.90;;;;;;5053317;28;20447;-61
2021/05/29 07:53:49;;;;;;;6.82;3.28;;;16.80;69.40;;;;;;5054754;28;20036;-61
2021/05/29 07:56:17;;;;;;;7.40;3.05;;;16.90;69.60;;;;;;5054768;28;20033;-61
2021/05/29 07:58:44;;;;;;;7.70;3.38;;;16.90;69.80;;;;;;5050087;28;20025;-61
2021/05/29 08:01:10;;;;;;;6.40;3.17;;;17.00;69.50;;;;;;5058865;28;20039;-61
2021/05/29 08:03:37;;;;;;;9.98;3.83;;;17.00;69.50;;;;;;5058302;28;20086;-61
2021/05/29 08:06:08;;;;;;;5.35;2.47;;;17.00;69.30;;;;;;5056165;28;20032;-61
2021/05/29 08:08:34;;;;;;;6.53;2.58;;;17.00;69.30;;;;;;5061127;28;20074;-61
2021/05/29 08:11:01;;;;;;;6.32;3.08;;;17.00;69.40;;;;;;5059433;28;20056;-61
2021/05/29 08:13:27;;;;;;;6.85;3.50;;;17.00;69.00;;;;;;5061708;28;20365;-61
2021/05/29 08:15:53;;;;;;;6.38;2.70;;;17.10;69.10;;;;;;5054452;28;20029;-61
2021/05/29 08:18:19;;;;;;;4.55;2.92;;;17.00;69.00;;;;;;5057878;28;20460;-61
2021/05/29 08:20:47;;;;;;;8.10;3.15;;;17.10;68.90;;;;;;5070662;28;20067;-61
2021/05/29 08:23:13;;;;;;;6.47;2.83;;;17.10;68.80;;;;;;5054938;28;20461;-60
2021/05/29 08:25:39;;;;;;;4.43;2.70;;;17.10;68.10;;;;;;5058680;28;20037;-60
2021/05/29 08:28:05;;;;;;;8.07;4.70;;;17.20;68.10;;;;;;5066609;28;20035;-61
2021/05/29 08:30:32;;;;;;;8.32;3.65;;;17.20;68.60;;;;;;5071317;28;20060;-60
2021/05/29 08:32:58;;;;;;;11.07;3.75;;;17.20;69.00;;;;;;5057337;28;20506;-60
2021/05/29 08:35:24;;;;;;;9.10;3.72;;;17.20;69.00;;;;;;5057460;28;20120;-61
2021/05/29 08:37:50;;;;;;;7.32;3.45;;;17.20;68.90;;;;;;5058943;28;20119;-60
2021/05/29 08:40:18;;;;;;;7.63;3.58;;;17.20;68.90;;;;;;5055786;28;20115;-62
2021/05/29 08:42:48;;;;;;;5.68;2.85;;;17.30;68.50;;;;;;5069612;28;20025;-61
2021/05/29 08:45:15;;;;;;;5.80;2.95;;;17.30;68.30;;;;;;5071876;28;20028;-61
2021/05/29 08:47:41;;;;;;;7.97;3.15;;;17.40;68.50;;;;;;5068545;28;20119;-61
2021/05/29 08:50:09;;;;;;;6.30;2.85;;;17.40;68.70;;;;;;5072673;28;20491;-62
2021/05/29 08:52:37;;;;;;;4.35;2.95;;;17.40;68.90;;;;;;5060666;28;20036;-62
2021/05/29 08:55:08;;;;;;;4.53;2.80;;;17.30;68.60;;;;;;5063674;28;20024;-62
2021/05/29 08:57:35;;;;;;;4.93;2.70;;;17.40;68.40;;;;;;5066357;28;20044;-64
2021/05/29 09:00:02;;;;;;;7.38;3.15;;;17.40;68.60;;;;;;5058738;28;20032;-64
2021/05/29 09:02:29;;;;;;;5.03;3.13;;;17.50;67.40;;;;;;5061370;28;20380;-65
2021/05/29 09:05:03;;;;;;;6.85;3.53;;;17.50;67.60;;;;;;5072166;28;20503;-64
2021/05/29 09:07:28;;;;;;;7.32;3.38;;;17.50;67.60;;;;;;5072720;28;20043;-64
2021/05/29 09:10:22;;;;;;;7.97;3.53;;;17.50;67.50;;;;;;5069096;28;20025;-64
2021/05/29 09:13:09;;;;;;;6.80;3.35;;;17.60;67.20;;;;;;5069234;28;20048;-64
2021/05/29 09:15:45;;;;;;;6.85;3.40;;;17.60;67.40;;;;;;5067625;28;20416;-64
2021/05/29 09:18:35;;;;;;;6.93;3.72;;;17.60;67.80;;;;;;5071880;28;20025;-64
2021/05/29 09:21:33;;;;;;;5.97;3.30;;;17.60;67.50;;;;;;5064524;28;20044;-64
2021/05/29 09:24:03;;;;;;;6.25;2.85;;;17.70;68.10;;;;;;5066458;28;20040;-64
2021/05/29 09:26:47;;;;;;;8.20;3.63;;;17.70;68.20;;;;;;5069414;28;20028;-64
2021/05/29 09:29:29;;;;;;;5.97;3.40;;;17.70;68.50;;;;;;5071327;28;20490;-63
2021/05/29 09:32:02;;;;;;;6.30;3.63;;;17.70;68.70;;;;;;5055041;28;20495;-63
2021/05/29 09:34:40;;;;;;;7.22;3.22;;;17.60;68.30;;;;;;5059241;28;20415;-63
2021/05/29 09:37:22;;;;;;;8.27;3.40;;;17.60;68.50;;;;;;5062728;28;20036;-63
2021/05/29 09:39:50;;;;;;;7.72;3.28;;;17.70;68.50;;;;;;5071694;28;20376;-62
2021/05/29 09:42:17;;;;;;;7.53;3.17;;;17.70;68.70;;;;;;5073644;28;20032;-63
2021/05/29 09:44:43;;;;;;;5.32;3.10;;;17.70;68.70;;;;;;5060292;28;20484;-60
2021/05/29 09:47:14;;;;;;;5.50;3.05;;;17.70;68.70;;;;;;5072042;28;20032;-60
2021/05/29 09:49:44;;;;;;;7.78;3.22;;;17.70;68.40;;;;;;5064141;28;20052;-61
2021/05/29 09:52:25;;;;;;;7.53;3.17;;;17.70;69.00;;;;;;5070837;28;20059;-62
2021/05/29 09:54:52;;;;;;;4.35;3.25;;;17.70;68.80;;;;;;5067602;28;20035;-62
2021/05/29 09:57:18;;;;;;;9.15;3.20;;;17.70;68.20;;;;;;5064111;28;20133;-62
2021/05/29 09:59:55;;;;;;;4.93;3.25;;;17.70;68.20;;;;;;5064194;28;20025;-62
2021/05/29 10:02:21;;;;;;;6.63;3.03;;;17.70;68.80;;;;;;5061735;28;20472;-61
2021/05/29 10:04:53;;;;;;;5.80;3.63;;;17.70;68.40;;;;;;5057398;28;20029;-63
2021/05/29 10:07:19;;;;;;;6.32;3.10;;;17.70;67.70;;;;;;5060108;28;20487;-60
2021/05/29 10:09:46;;;;;;;6.82;3.50;;;17.70;68.40;;;;;;5067571;28;20037;-62
2021/05/29 10:12:12;;;;;;;8.00;4.10;;;17.70;69.10;;;;;;5067143;28;20052;-61
2021/05/29 10:14:39;;;;;;;6.40;3.30;;;17.60;68.90;;;;;;5069219;28;20025;-61
2021/05/29 10:17:12;;;;;;;5.38;3.65;;;17.70;68.60;;;;;;5069430;28;20032;-60
2021/05/29 10:19:39;;;;;;;;;;;17.60;68.10;;;;;;5066190;28;20526;-61
2021/05/29 10:22:10;;;;;;;6.43;3.25;;;17.70;69.00;;;;;;5066828;28;19908;-61
2021/05/29 10:24:38;;;;;;;6.28;3.83;;;17.70;69.20;;;;;;5063534;28;20480;-61
2021/05/29 10:27:09;;;;;;;3.83;2.47;;;17.70;69.80;;;;;;5066470;28;20119;-61
2021/05/29 10:29:36;;;;;;;5.70;2.95;;;17.80;69.40;;;;;;5058284;28;20029;-61
2021/05/29 10:32:13;;;;;;;7.93;3.75;;;17.70;69.00;;;;;;5069853;28;20048;-60
2021/05/29 10:34:59;;;;;;;8.20;3.40;;;17.70;69.00;;;;;;5059293;28;20115;-60
2021/05/29 10:37:39;;;;;;;6.20;3.63;;;17.80;69.20;;;;;;5055816;28;20029;-61
2021/05/29 10:40:15;;;;;;;7.45;4.03;;;17.70;68.70;;;;;;5067280;28;20040;-60
2021/05/29 10:42:41;;;;;;;4.70;3.17;;;17.80;69.40;;;;;;5060428;28;20170;-60
2021/05/29 10:45:25;;;;;;;8.63;3.00;;;17.80;69.10;;;;;;5062885;28;20504;-60
2021/05/29 10:48:04;;;;;;;4.90;2.53;;;17.80;68.50;;;;;;5057554;28;20051;-60
2021/05/29 10:51:08;;;;;;;11.82;3.45;;;17.80;69.20;;;;;;5061448;28;20035;-61
2021/05/29 10:53:46;;;;;;;5.75;2.97;;;17.80;69.50;;;;;;5062961;28;20061;-61
2021/05/29 10:56:15;;;;;;;4.95;2.35;;;17.80;70.20;;;;;;5053135;28;20435;-61
2021/05/29 10:59:15;;;;;;;4.78;3.40;;;17.90;69.60;;;;;;5065563;28;20119;-60
2021/05/29 11:01:45;;;;;;;5.50;2.80;;;17.80;69.00;;;;;;5058520;28;20025;-61
2021/05/29 11:04:21;;;;;;;4.80;2.78;;;17.80;68.50;;;;;;5060217;28;20025;-61
2021/05/29 11:06:54;;;;;;;5.75;2.70;;;17.80;69.70;;;;;;5060246;28;20544;-61
2021/05/29 11:09:26;;;;;;;4.85;2.80;;;17.90;69.50;;;;;;5061124;28;20029;-60
2021/05/29 11:11:53;;;;;;;5.03;3.15;;;17.90;69.10;;;;;;5064026;28;20059;-60
2021/05/29 11:14:54;;;;;;;6.10;2.88;;;17.90;68.70;;;;;;5065821;28;20107;-61
2021/05/29 11:17:24;;;;;;;6.05;3.35;;;17.90;68.50;;;;;;5052752;28;20040;-61
2021/05/29 11:20:09;;;;;;;4.80;2.70;;;17.90;67.90;;;;;;5057701;28;20040;-62
2021/05/29 11:22:46;;;;;;;6.00;2.88;;;17.90;68.20;;;;;;5067893;28;20051;-61
2021/05/29 11:25:16;;;;;;;6.60;2.70;;;18.00;68.10;;;;;;5059231;28;20094;-61
2021/05/29 11:27:43;;;;;;;4.43;2.38;;;17.90;68.00;;;;;;5060925;28;20460;-61
2021/05/29 11:30:14;;;;;;;7.55;3.15;;;18.00;67.70;;;;;;5069564;28;20029;-61
2021/05/29 11:33:01;;;;;;;5.43;2.80;;;18.00;66.40;;;;;;5063150;28;20093;-61
2021/05/29 11:35:35;;;;;;;5.90;3.15;;;18.00;65.90;;;;;;5055332;28;20555;-59
2021/05/29 11:38:04;;;;;;;6.32;2.17;;;18.10;65.20;;;;;;5057378;28;20024;-60
2021/05/29 11:41:08;;;;;;;7.55;3.00;;;18.10;65.30;;;;;;5068984;28;20392;-62
2021/05/29 11:43:33;;;;;;;;;;;18.10;64.20;;;;;;5062243;28;20033;-62
2021/05/29 11:46:00;;;;;;;12.88;2.90;;;18.10;64.20;;;;;;5067912;28;19916;-62
2021/05/29 11:48:47;;;;;;;5.95;3.38;;;18.10;64.50;;;;;;5065955;28;20016;-63
2021/05/29 11:51:17;;;;;;;5.28;2.80;;;18.10;64.00;;;;;;5068397;28;20036;-61
2021/05/29 11:54:17;;;;;;;5.28;2.90;;;18.10;63.50;;;;;;5071439;28;20081;-63
2021/05/29 11:56:46;;;;;;;5.15;2.90;;;18.20;64.80;;;;;;5061463;28;20041;-61
2021/05/29 11:59:24;;;;;;;7.00;2.67;;;18.20;64.70;;;;;;5070052;28;20024;-63
2021/05/29 12:01:53;;;;;;;7.57;3.10;;;18.20;64.30;;;;;;5073731;28;20063;-62
2021/05/29 12:04:22;;;;;;;10.10;3.70;;;18.20;63.70;;;;;;5070135;28;20035;-63
2021/05/29 12:06:56;;;;;;;7.55;4.40;;;18.20;64.40;;;;;;5072953;28;20098;-66
2021/05/29 12:09:34;;;;;;;4.85;2.85;;;18.30;64.80;;;;;;5073192;28;20021;-62
2021/05/29 12:12:05;;;;;;;4.63;2.97;;;18.30;64.60;;;;;;5062356;28;20057;-61
2021/05/29 12:14:35;;;;;;;7.95;3.30;;;18.30;64.70;;;;;;5073819;28;20135;-61
2021/05/29 12:17:06;;;;;;;5.03;2.60;;;18.30;64.80;;;;;;5062535;28;20031;-61
2021/05/29 12:19:41;;;;;;;5.90;3.28;;;18.40;65.00;;;;;;5072004;28;20032;-61
2021/05/29 12:22:11;;;;;;;8.65;3.38;;;18.40;65.50;;;;;;5055346;28;20086;-61
2021/05/29 12:24:38;;;;;;;5.30;2.65;;;18.40;65.10;;;;;;5068985;28;20036;-62
2021/05/29 12:27:04;;;;;;;5.35;2.90;;;18.50;65.30;;;;;;5071887;28;20108;-61
2021/05/29 12:29:30;;;;;;;6.38;2.60;;;18.50;64.80;;;;;;5069071;28;20109;-61
2021/05/29 12:31:59;;;;;;;5.32;2.95;;;18.50;65.40;;;;;;5053686;28;20488;-61
2021/05/29 12:34:27;;;;;;;5.80;3.17;;;18.50;65.10;;;;;;5054156;28;20029;-61
2021/05/29 12:37:03;;;;;;;6.13;2.90;;;18.50;64.40;;;;;;5062133;28;20036;-61
2021/05/29 12:39:46;;;;;;;5.10;2.80;;;18.60;64.70;;;;;;5057315;28;20044;-62
2021/05/29 12:42:27;;;;;;;5.63;2.70;;;18.60;64.10;;;;;;5053812;28;20065;-61
2021/05/29 12:44:55;;;;;;;4.93;2.90;;;18.60;63.80;;;;;;5052018;28;20029;-61
2021/05/29 12:47:30;;;;;;;6.68;3.63;;;18.60;64.10;;;;;;5062294;28;20028;-61
2021/05/29 12:49:57;;;;;;;6.90;2.80;;;18.60;63.80;;;;;;5066617;28;20021;-61
2021/05/29 12:52:33;;;;;;;4.72;2.78;;;18.60;63.70;;;;;;5062767;28;20044;-61
2021/05/29 12:55:02;;;;;;;5.53;2.90;;;18.70;63.80;;;;;;5057710;28;20051;-60
2021/05/29 12:57:39;;;;;;;4.00;2.45;;;18.60;64.20;;;;;;5064342;28;20040;-60
2021/05/29 13:09:09;;;;;;;6.35;3.03;;;18.70;63.80;;;;;;5059789;28;20028;-60
2021/05/29 13:11:36;;;;;;;4.32;2.80;;;18.80;64.80;;;;;;5077696;28;20530;-60